Terminal Aerodrome Forecast
Issued by NWS Sioux Falls, SD

Home | Current Version | Previous Version | Graphics & Text | Print | Product List | Glossary On
Versions: 1 2 3 4 5 6 7 8 9 10 11 12 13 14 15 16
000
FTUS43 KFSD 161456 AAB
TAFFSD
TAF AMD
KFSD 161456Z 1615/1712 13011KT P6SM SCT005 OVC150
     FM161700 14015G23KT P6SM BKN130
     FM162000 16020G29KT P6SM SCT140
     FM170800 18013KT P6SM BKN100=

USA.gov is the U.S. government's official web portal to all federal, state and local government web resources and services.